Terminal Aerodrome Forecast
Issued by NWS Mobile, AL

Home | Current Version | Previous Version | Text Only | Print | Product List | Glossary On
Versions: 1 2 3 4 5 6 7 8 9 10 11 12 13 14 15 16 17 18 19 20 21 22 23 24 25 26
000
FTUS44 KMOB 220538
TAFMOB
TAF
KMOB 220538Z 2206/2306 10008KT P6SM FEW080
     FM221300 11010KT P6SM VCTS SCT030CB BKN050
     FM221700 13012KT 5SM TSRA BKN030CB OVC080=

USA.gov is the U.S. government's official web portal to all federal, state and local government web resources and services.